createdAt,value
2022-09-20T00:01:08.673Z,101355.06
2022-09-20T00:03:37.433Z,101358.59
2022-09-20T00:06:07.102Z,101355.06
2022-09-20T00:08:34.698Z,101357.06
2022-09-20T00:11:03.394Z,101357.94
2022-09-20T00:13:31.072Z,101358.94
2022-09-20T00:15:58.713Z,101355.53
2022-09-20T00:18:26.091Z,101355.53
2022-09-20T00:20:53.095Z,101355.53
2022-09-20T00:23:20.036Z,101357.38
2022-09-20T00:25:55.816Z,101356.41
2022-09-20T00:28:22.800Z,101363.63
2022-09-20T00:30:49.432Z,101357.38
2022-09-20T00:33:16.071Z,101367.31
2022-09-20T00:35:46.451Z,101366.31
2022-09-20T00:38:14.170Z,101367.31
2022-09-20T00:40:42.516Z,101368.16
2022-09-20T00:43:17.649Z,101366.16
2022-09-20T00:45:49.806Z,101366.84
2022-09-20T00:48:27.296Z,101365.00
2022-09-20T00:51:07.676Z,101352.22
2022-09-20T00:53:39.350Z,101354.75
2022-09-20T00:56:32.911Z,101359.31
2022-09-20T00:59:30.465Z,101360.84
2022-09-20T01:02:03.233Z,101373.97
2022-09-20T01:04:30.325Z,101358.69
2022-09-20T01:07:02.281Z,101363.75
2022-09-20T01:09:28.780Z,101357.50
2022-09-20T01:11:57.063Z,101359.91
2022-09-20T01:14:26.318Z,101365.13
2022-09-20T01:16:56.587Z,101362.28
2022-09-20T01:19:44.620Z,101364.66
2022-09-20T01:22:27.107Z,101364.50
2022-09-20T01:25:29.342Z,101366.03
2022-09-20T01:27:55.864Z,101366.72
2022-09-20T01:30:26.026Z,101372.94
2022-09-20T01:33:02.768Z,101373.47
2022-09-20T01:35:31.151Z,101372.47
2022-09-20T01:38:19.700Z,101378.56
2022-09-20T01:41:07.890Z,101378.25
2022-09-20T01:43:47.531Z,101377.09
2022-09-20T01:46:44.094Z,101377.09
2022-09-20T01:49:46.326Z,101372.56
2022-09-20T01:52:15.819Z,101373.41
2022-09-20T01:54:58.018Z,101371.72
2022-09-20T01:57:33.774Z,101370.88
2022-09-20T02:00:32.040Z,101374.59
2022-09-20T02:03:16.743Z,101377.28
2022-09-20T02:05:56.378Z,101378.25
2022-09-20T02:08:36.727Z,101375.84
2022-09-20T02:11:41.547Z,101369.63
2022-09-20T02:14:36.185Z,101371.47
2022-09-20T02:17:13.882Z,101377.16
2022-09-20T02:19:43.412Z,101379.19
2022-09-20T02:22:21.081Z,101374.97
2022-09-20T02:25:23.997Z,101379.66
2022-09-20T02:27:56.612Z,101370.88
2022-09-20T02:30:45.216Z,101379.13
2022-09-20T02:33:33.185Z,101376.72
2022-09-20T02:36:27.911Z,101375.06
2022-09-20T02:39:21.587Z,101375.38
2022-09-20T02:42:13.289Z,101374.69
2022-09-20T02:44:54.903Z,101370.44
2022-09-20T02:47:24.399Z,101373.47
2022-09-20T02:50:12.993Z,101376.31
2022-09-20T02:53:29.163Z,101376.63
2022-09-20T02:56:33.220Z,101382.31
2022-09-20T02:59:05.770Z,101379.25
2022-09-20T03:02:06.236Z,101389.31
2022-09-20T03:04:57.284Z,101383.28
2022-09-20T03:07:41.897Z,101393.34
2022-09-20T03:10:21.164Z,101390.09
2022-09-20T03:12:57.300Z,101396.63
2022-09-20T03:15:38.576Z,101386.16
2022-09-20T03:18:16.243Z,101388.34
2022-09-20T03:21:11.514Z,101393.19
2022-09-20T03:24:03.459Z,101397.19
2022-09-20T03:27:07.897Z,101397.63
2022-09-20T03:30:01.621Z,101394.41
2022-09-20T03:32:48.787Z,101393.31
2022-09-20T03:35:40.343Z,101396.31
2022-09-20T03:38:23.920Z,101394.91
2022-09-20T03:41:05.845Z,101389.84
2022-09-20T03:43:34.977Z,101393.84
2022-09-20T03:46:26.636Z,101390.78
2022-09-20T03:49:32.429Z,101394.75
2022-09-20T03:52:05.823Z,101395.34
2022-09-20T03:55:04.148Z,101395.97
2022-09-20T03:57:49.577Z,101401.22
2022-09-20T04:00:43.088Z,101404.53
2022-09-20T04:03:33.607Z,101406.06
2022-09-20T04:06:28.662Z,101400.59
2022-09-20T04:09:13.494Z,101402.19
2022-09-20T04:12:16.714Z,101396.69
2022-09-20T04:14:59.900Z,101403.66
2022-09-20T04:17:52.185Z,101414.28
2022-09-20T04:20:44.228Z,101398.72
2022-09-20T04:23:55.019Z,101411.06
2022-09-20T04:26:26.829Z,101410.78
2022-09-20T04:29:16.885Z,101412.22
2022-09-20T04:31:59.286Z,101418.31
2022-09-20T04:34:51.771Z,101414.34
2022-09-20T04:37:33.136Z,101415.78
2022-09-20T04:40:15.204Z,101425.25
2022-09-20T04:43:07.388Z,101423.13
2022-09-20T04:46:16.840Z,101420.00
2022-09-20T04:49:12.195Z,101416.91
2022-09-20T04:52:17.676Z,101422.72
2022-09-20T04:55:18.395Z,101420.44
2022-09-20T05:01:32.422Z,101432.00
2022-09-20T05:04:13.478Z,101427.91
2022-09-20T05:07:08.007Z,101441.47
2022-09-20T05:09:52.398Z,101439.91
2022-09-20T05:12:37.313Z,101451.63
2022-09-20T05:15:30.747Z,101443.88
2022-09-20T05:18:16.122Z,101438.63
2022-09-20T05:21:13.434Z,101448.50
2022-09-20T05:23:52.237Z,101457.56
2022-09-20T05:27:05.264Z,101454.16
2022-09-20T05:29:42.491Z,101454.28
2022-09-20T05:32:22.900Z,101463.19
2022-09-20T05:35:04.835Z,101463.06
2022-09-20T05:37:50.818Z,101462.94
2022-09-20T05:40:33.926Z,101466.16
2022-09-20T05:43:34.912Z,101473.09
2022-09-20T05:46:16.679Z,101473.66
2022-09-20T05:49:18.428Z,101473.25
2022-09-20T05:52:04.782Z,101473.69
2022-09-20T05:54:34.301Z,101475.66
2022-09-20T05:57:03.989Z,101482.44
2022-09-20T05:59:53.378Z,101483.59
2022-09-20T06:02:40.330Z,101485.69
2022-09-20T06:05:27.266Z,101483.44
2022-09-20T06:08:31.157Z,101485.44
2022-09-20T06:11:25.797Z,101490.09
2022-09-20T06:14:09.413Z,101486.69
2022-09-20T06:16:43.508Z,101487.84
2022-09-20T06:19:46.183Z,101494.34
2022-09-20T06:22:20.437Z,101495.44
2022-09-20T06:25:14.028Z,101498.25
2022-09-20T06:28:02.446Z,101496.69
2022-09-20T06:30:37.354Z,101500.66
2022-09-20T06:33:12.931Z,101498.25
2022-09-20T06:35:44.904Z,101496.81
2022-09-20T06:38:54.084Z,101495.09
2022-09-20T06:41:28.573Z,101492.53
2022-09-20T06:43:59.269Z,101491.81
2022-09-20T06:46:29.388Z,101492.78
2022-09-20T06:48:57.151Z,101504.50
2022-09-20T06:51:26.499Z,101510.81
2022-09-20T06:53:55.221Z,101508.22
2022-09-20T06:56:30.603Z,101510.03
2022-09-20T06:58:57.550Z,101513.81
2022-09-20T07:01:30.176Z,101514.06
2022-09-20T07:03:58.774Z,101508.94
2022-09-20T07:06:25.566Z,101514.56
2022-09-20T07:08:52.383Z,101510.41
2022-09-20T07:11:19.428Z,101512.50
2022-09-20T07:13:51.089Z,101506.50
2022-09-20T07:16:18.554Z,101509.59
2022-09-20T07:18:45.436Z,101511.66
2022-09-20T07:21:13.618Z,101521.16
2022-09-20T07:23:40.256Z,101518.28
2022-09-20T07:26:18.790Z,101515.44
2022-09-20T07:28:45.437Z,101518.84
2022-09-20T07:31:12.452Z,101513.59
2022-09-20T07:33:38.974Z,101514.59
2022-09-20T07:36:05.770Z,101523.97
2022-09-20T07:38:32.585Z,101525.13
2022-09-20T07:41:00.806Z,101529.16
2022-09-20T07:43:28.289Z,101539.34
2022-09-20T07:45:56.110Z,101537.81
2022-09-20T07:48:26.257Z,101534.41
2022-09-20T07:50:55.652Z,101538.81
2022-09-20T07:53:22.400Z,101538.66
2022-09-20T07:55:58.069Z,101525.75
2022-09-20T07:58:25.013Z,101530.81
2022-09-20T08:01:01.607Z,101520.31
2022-09-20T08:03:31.283Z,101528.75
2022-09-20T08:06:03.487Z,101537.91
2022-09-20T08:08:33.909Z,101540.84
2022-09-20T08:11:14.604Z,101540.13
2022-09-20T08:16:32.656Z,101543.66
2022-09-20T08:19:01.903Z,101545.41
2022-09-20T08:21:31.728Z,101547.00
2022-09-20T08:23:59.656Z,101556.84
2022-09-20T08:26:28.297Z,101548.50
2022-09-20T08:28:57.211Z,101550.22
2022-09-20T08:31:26.880Z,101548.28
2022-09-20T08:33:54.954Z,101548.16
2022-09-20T08:36:24.692Z,101543.50
2022-09-20T08:42:13.195Z,101560.00
2022-09-20T08:45:02.658Z,101554.31
2022-09-20T08:47:37.373Z,101553.34
2022-09-20T08:50:09.866Z,101552.50
2022-09-20T08:52:40.293Z,101549.84
2022-09-20T08:55:17.285Z,101551.41
2022-09-20T08:57:49.549Z,101553.25
2022-09-20T09:00:20.712Z,101556.84
2022-09-20T09:02:53.885Z,101554.16
2022-09-20T09:05:32.718Z,101551.13
2022-09-20T09:08:07.221Z,101558.22
2022-09-20T09:10:43.434Z,101547.06
2022-09-20T09:13:38.452Z,101551.44
2022-09-20T09:16:23.174Z,101548.47
2022-09-20T09:18:51.923Z,101555.53
2022-09-20T09:21:22.667Z,101552.66
2022-09-20T09:24:03.806Z,101546.88
2022-09-20T09:26:40.539Z,101549.06
2022-09-20T09:29:19.234Z,101538.53
2022-09-20T09:31:48.458Z,101539.47
2022-09-20T09:34:35.857Z,101541.75
2022-09-20T09:37:03.640Z,101550.50
2022-09-20T09:39:41.048Z,101548.38
2022-09-20T09:42:23.801Z,101547.03
2022-09-20T09:44:51.060Z,101544.41
2022-09-20T09:47:28.720Z,101545.97
2022-09-20T09:50:03.905Z,101546.66
2022-09-20T09:52:34.258Z,101556.56
2022-09-20T09:55:05.435Z,101549.28
2022-09-20T09:57:38.506Z,101546.59
2022-09-20T10:00:17.923Z,101539.47
2022-09-20T10:02:54.834Z,101537.38
2022-09-20T10:05:27.816Z,101536.34
2022-09-20T10:08:35.621Z,101551.44
2022-09-20T10:11:20.359Z,101550.66
2022-09-20T10:14:04.064Z,101543.56
2022-09-20T10:16:32.546Z,101545.34
2022-09-20T10:19:08.926Z,101550.69
2022-09-20T10:21:54.132Z,101552.66
2022-09-20T10:24:30.795Z,101543.59
2022-09-20T10:27:16.278Z,101538.06
2022-09-20T10:29:42.721Z,101540.31
2022-09-20T10:32:36.106Z,101533.66
2022-09-20T10:35:34.216Z,101534.94
2022-09-20T10:38:19.932Z,101540.28
2022-09-20T10:41:23.923Z,101535.94
2022-09-20T10:44:06.387Z,101545.88
2022-09-20T10:47:03.550Z,101534.81
2022-09-20T10:49:50.683Z,101537.41
2022-09-20T10:52:59.393Z,101534.81
2022-09-20T10:55:47.437Z,101539.59
2022-09-20T10:58:35.160Z,101526.41
2022-09-20T11:01:29.007Z,101534.09
2022-09-20T11:04:32.776Z,101537.66
2022-09-20T11:07:10.851Z,101530.50
2022-09-20T11:09:45.738Z,101532.00
2022-09-20T11:12:39.996Z,101526.00
2022-09-20T11:15:36.486Z,101527.63
2022-09-20T11:18:29.928Z,101533.41
2022-09-20T11:21:16.869Z,101530.63
2022-09-20T11:24:00.611Z,101537.22
2022-09-20T11:26:53.785Z,101530.00
2022-09-20T11:29:30.716Z,101535.13
2022-09-20T11:32:07.193Z,101529.53
2022-09-20T11:34:40.131Z,101518.91
2022-09-20T11:37:06.773Z,101532.56
2022-09-20T11:39:54.909Z,101527.25
2022-09-20T11:42:27.129Z,101531.34
2022-09-20T11:44:54.660Z,101535.75
2022-09-20T11:47:52.516Z,101534.16
2022-09-20T11:50:39.294Z,101550.09
2022-09-20T11:53:43.333Z,101537.31
2022-09-20T11:56:20.943Z,101548.22
2022-09-20T11:58:53.072Z,101538.56
2022-09-20T12:01:33.148Z,101544.00
2022-09-20T12:04:31.210Z,101539.78
2022-09-20T12:07:18.055Z,101538.31
2022-09-20T12:10:03.881Z,101532.19
2022-09-20T12:12:45.495Z,101530.63
2022-09-20T12:15:26.727Z,101538.47
2022-09-20T12:17:53.369Z,101531.69
2022-09-20T12:20:35.397Z,101541.00
2022-09-20T12:23:43.352Z,101542.84
2022-09-20T12:26:13.523Z,101548.38
2022-09-20T12:28:46.638Z,101548.50
2022-09-20T12:31:22.164Z,101552.56
2022-09-20T12:34:10.999Z,101546.16
2022-09-20T12:36:39.299Z,101547.28
2022-09-20T12:39:11.306Z,101548.06
2022-09-20T12:41:59.921Z,101547.75
2022-09-20T12:44:44.860Z,101551.91
2022-09-20T12:47:11.828Z,101547.69
2022-09-20T12:50:06.681Z,101554.34
2022-09-20T12:53:05.761Z,101546.75
2022-09-20T12:55:55.448Z,101547.31
2022-09-20T12:58:54.546Z,101547.03
2022-09-20T13:01:30.288Z,101549.31
2022-09-20T13:07:29.874Z,101557.06
2022-09-20T13:09:56.990Z,101555.31
2022-09-20T13:12:23.413Z,101558.75
2022-09-20T13:14:50.304Z,101564.56
2022-09-20T13:17:27.984Z,101558.66
2022-09-20T13:19:55.192Z,101566.16
2022-09-20T13:22:30.254Z,101565.78
2022-09-20T13:25:00.157Z,101566.72
2022-09-20T13:27:37.261Z,101567.84
2022-09-20T13:30:17.499Z,101569.44
2022-09-20T13:32:44.167Z,101553.25
2022-09-20T13:35:10.439Z,101559.63
2022-09-20T13:38:02.425Z,101557.81
2022-09-20T13:40:35.755Z,101556.84
2022-09-20T13:43:23.134Z,101553.41
2022-09-20T13:45:55.448Z,101557.53
2022-09-20T13:48:25.427Z,101560.59
2022-09-20T13:50:53.758Z,101553.16
2022-09-20T13:53:39.802Z,101553.69
2022-09-20T13:56:12.478Z,101557.75
2022-09-20T13:58:38.909Z,101546.69
2022-09-20T14:01:09.140Z,101556.53
2022-09-20T14:03:36.367Z,101557.75
2022-09-20T14:06:09.886Z,101559.22
2022-09-20T14:08:38.853Z,101560.00
2022-09-20T14:11:17.242Z,101566.00
2022-09-20T14:13:47.678Z,101563.84
2022-09-20T14:16:16.057Z,101565.47
2022-09-20T14:18:44.046Z,101566.88
2022-09-20T14:21:12.075Z,101568.84
2022-09-20T14:23:58.314Z,101570.66
2022-09-20T14:26:26.421Z,101582.44
2022-09-20T14:28:52.846Z,101578.16
2022-09-20T14:31:24.367Z,101571.38
2022-09-20T14:33:55.365Z,101578.44
2022-09-20T14:36:28.033Z,101583.41
2022-09-20T14:38:59.722Z,101584.41
2022-09-20T14:41:39.358Z,101579.19
2022-09-20T14:44:17.096Z,101585.47
2022-09-20T14:46:43.840Z,101581.69
2022-09-20T14:49:25.420Z,101577.31
2022-09-20T14:52:29.673Z,101585.63
2022-09-20T14:55:08.266Z,101582.06
2022-09-20T14:57:35.385Z,101589.78
2022-09-20T15:00:07.999Z,101586.59
2022-09-20T15:02:36.093Z,101589.03
2022-09-20T15:05:02.664Z,101592.09
2022-09-20T15:07:30.347Z,101594.56
2022-09-20T15:09:56.694Z,101586.75
2022-09-20T15:12:23.031Z,101598.84
2022-09-20T15:14:49.510Z,101584.13
2022-09-20T15:17:21.350Z,101588.06
2022-09-20T15:19:48.677Z,101590.31
2022-09-20T15:22:15.509Z,101584.41
2022-09-20T15:24:42.912Z,101584.41
2022-09-20T15:27:11.889Z,101577.78
2022-09-20T15:29:38.209Z,101586.19
2022-09-20T15:32:05.818Z,101591.56
2022-09-20T15:34:32.670Z,101573.47
2022-09-20T15:36:58.998Z,101574.03
2022-09-20T15:39:25.915Z,101578.34
2022-09-20T15:41:53.317Z,101582.19
2022-09-20T15:44:20.666Z,101573.09
2022-09-20T15:46:48.311Z,101575.06
2022-09-20T15:49:14.712Z,101572.44
2022-09-20T15:51:41.311Z,101579.00
2022-09-20T15:54:07.888Z,101580.28
2022-09-20T15:56:37.023Z,101580.97
2022-09-20T15:59:06.412Z,101586.41
2022-09-20T16:01:38.230Z,101580.28
2022-09-20T16:04:10.774Z,101581.72
2022-09-20T16:06:39.236Z,101584.13
2022-09-20T16:09:06.574Z,101592.00
2022-09-20T16:11:34.878Z,101591.06
2022-09-20T16:14:02.152Z,101598.94
2022-09-20T16:16:30.338Z,101598.88
2022-09-20T16:19:15.734Z,101599.59
2022-09-20T16:22:01.036Z,101606.63
2022-09-20T16:24:30.341Z,101608.03
2022-09-20T16:29:34.717Z,101605.50
2022-09-20T16:32:04.547Z,101614.13
2022-09-20T16:34:38.753Z,101602.53
2022-09-20T16:37:20.394Z,101608.03
2022-09-20T16:39:56.196Z,101609.81
2022-09-20T16:42:35.064Z,101617.88
2022-09-20T16:45:07.067Z,101609.34
2022-09-20T16:52:50.544Z,101626.03
2022-09-20T16:55:19.643Z,101625.75
2022-09-20T17:00:43.284Z,101629.09
2022-09-20T17:03:09.732Z,101632.13
2022-09-20T17:05:42.379Z,101636.59
2022-09-20T17:08:09.851Z,101636.69
2022-09-20T17:10:36.637Z,101642.84
2022-09-20T17:13:03.218Z,101644.63
2022-09-20T17:15:35.148Z,101642.63
2022-09-20T17:18:05.379Z,101648.78
2022-09-20T17:20:31.767Z,101650.38
2022-09-20T17:22:59.614Z,101655.31
2022-09-20T17:25:30.175Z,101661.41
2022-09-20T17:27:56.618Z,101657.41
2022-09-20T17:30:23.116Z,101655.22
2022-09-20T17:32:51.168Z,101658.47
2022-09-20T17:35:18.644Z,101657.16
2022-09-20T17:37:45.081Z,101660.22
2022-09-20T17:40:11.694Z,101672.28
2022-09-20T17:42:39.109Z,101671.78
2022-09-20T17:45:06.278Z,101677.56
2022-09-20T17:47:32.895Z,101674.56
2022-09-20T17:49:59.846Z,101676.78
2022-09-20T17:52:26.298Z,101674.59
2022-09-20T17:54:52.808Z,101676.00
2022-09-20T17:57:19.934Z,101680.91
2022-09-20T17:59:46.801Z,101678.72
2022-09-20T18:02:17.659Z,101689.25
2022-09-20T18:04:44.070Z,101685.22
2022-09-20T18:07:10.536Z,101690.31
2022-09-20T18:09:36.956Z,101687.28
2022-09-20T18:12:05.048Z,101695.94
2022-09-20T18:14:32.796Z,101696.50
2022-09-20T18:17:01.638Z,101700.56
2022-09-20T18:19:37.527Z,101704.81
2022-09-20T18:22:04.342Z,101704.34
2022-09-20T18:24:36.104Z,101712.75
2022-09-20T18:27:03.911Z,101707.00
2022-09-20T18:29:36.375Z,101711.09
2022-09-20T18:32:02.909Z,101709.72
2022-09-20T18:34:33.476Z,101711.13
2022-09-20T18:37:01.269Z,101715.16
2022-09-20T18:39:32.310Z,101724.47
2022-09-20T18:41:59.869Z,101716.22
2022-09-20T18:44:27.583Z,101717.56
2022-09-20T18:46:55.112Z,101719.09
2022-09-20T18:49:22.517Z,101732.28
2022-09-20T18:51:49.693Z,101723.84
2022-09-20T18:54:16.917Z,101728.06
2022-09-20T18:56:46.491Z,101733.97
2022-09-20T18:59:14.695Z,101737.19
2022-09-20T19:01:49.837Z,101736.19
2022-09-20T19:04:34.563Z,101737.53
2022-09-20T19:07:15.455Z,101734.47
2022-09-20T19:09:44.861Z,101736.81
2022-09-20T19:12:43.438Z,101743.59
2022-09-20T19:15:22.569Z,101743.94
2022-09-20T19:18:07.539Z,101744.59
2022-09-20T19:20:51.674Z,101744.22
2022-09-20T19:23:39.738Z,101750.13
2022-09-20T19:26:24.143Z,101750.63
2022-09-20T19:28:53.353Z,101754.84
2022-09-20T19:31:23.628Z,101760.56
2022-09-20T19:33:51.991Z,101762.94
2022-09-20T19:36:18.941Z,101756.13
2022-09-20T19:38:52.241Z,101760.84
2022-09-20T19:41:27.273Z,101772.00
2022-09-20T19:44:20.175Z,101770.47
2022-09-20T19:47:01.607Z,101775.19
2022-09-20T19:49:36.366Z,101773.84
2022-09-20T19:52:03.723Z,101774.16
2022-09-20T19:54:31.182Z,101776.31
2022-09-20T19:56:59.374Z,101783.91
2022-09-20T19:59:27.664Z,101779.81
2022-09-20T20:01:54.687Z,101790.28
2022-09-20T20:04:21.678Z,101784.50
2022-09-20T20:07:10.897Z,101797.63
2022-09-20T20:10:15.711Z,101791.19
2022-09-20T20:12:47.887Z,101785.88
2022-09-20T20:15:34.070Z,101786.53
2022-09-20T20:18:17.791Z,101792.53
2022-09-20T20:20:48.921Z,101796.03
2022-09-20T20:23:40.106Z,101798.69
2022-09-20T20:26:19.453Z,101801.13
2022-09-20T20:28:46.330Z,101802.94
2022-09-20T20:31:13.321Z,101801.97
2022-09-20T20:33:40.562Z,101798.06
2022-09-20T20:36:11.835Z,101795.16
2022-09-20T20:38:43.412Z,101814.63
2022-09-20T20:41:13.055Z,101804.59
2022-09-20T20:43:42.439Z,101808.75
2022-09-20T20:46:12.297Z,101811.06
2022-09-20T20:48:38.672Z,101812.69
2022-09-20T20:51:11.089Z,101817.69
2022-09-20T20:53:40.062Z,101810.34
2022-09-20T20:56:12.279Z,101819.72
2022-09-20T20:58:40.812Z,101822.03
2022-09-20T21:01:20.717Z,101826.19
2022-09-20T21:03:49.494Z,101824.94
2022-09-20T21:06:17.028Z,101829.06
2022-09-20T21:08:49.043Z,101826.81
2022-09-20T21:11:23.527Z,101830.13
2022-09-20T21:13:55.122Z,101830.41
2022-09-20T21:16:26.902Z,101839.78
2022-09-20T21:18:53.251Z,101843.03
2022-09-20T21:21:31.804Z,101848.56
2022-09-20T21:24:01.222Z,101849.16
2022-09-20T21:26:31.860Z,101845.22
2022-09-20T21:29:00.303Z,101845.78
2022-09-20T21:31:29.397Z,101848.94
2022-09-20T21:33:56.105Z,101852.06
2022-09-20T21:36:25.625Z,101852.59
2022-09-20T21:38:52.385Z,101851.50
2022-09-20T21:41:22.324Z,101848.53
2022-09-20T21:43:53.816Z,101856.03
2022-09-20T21:46:24.252Z,101855.75
2022-09-20T21:48:50.774Z,101858.19
2022-09-20T21:51:19.105Z,101867.53
2022-09-20T21:53:46.353Z,101867.94
2022-09-20T21:56:16.128Z,101871.06
2022-09-20T21:58:42.558Z,101863.41
2022-09-20T22:01:21.271Z,101868.91
2022-09-20T22:03:54.831Z,101870.22
2022-09-20T22:06:26.177Z,101869.50
2022-09-20T22:09:01.951Z,101870.75
2022-09-20T22:11:34.400Z,101868.50
2022-09-20T22:14:00.834Z,101867.06
2022-09-20T22:16:35.524Z,101871.72
2022-09-20T22:19:01.855Z,101870.44
2022-09-20T22:21:30.645Z,101868.03
2022-09-20T22:24:02.622Z,101874.56
2022-09-20T22:26:31.939Z,101877.66
2022-09-20T22:28:58.437Z,101870.69
2022-09-20T22:31:27.539Z,101878.22
2022-09-20T22:33:56.624Z,101870.41
2022-09-20T22:36:25.513Z,101880.44
2022-09-20T22:38:53.131Z,101875.34
2022-09-20T22:41:20.599Z,101880.84
2022-09-20T22:43:47.012Z,101870.34
2022-09-20T22:46:24.363Z,101875.00
2022-09-20T22:48:51.191Z,101872.75
2022-09-20T22:51:20.084Z,101871.47
2022-09-20T22:53:47.640Z,101870.13
2022-09-20T22:56:16.750Z,101866.03
2022-09-20T22:58:45.422Z,101880.72
2022-09-20T23:01:21.010Z,101877.34
2022-09-20T23:03:53.986Z,101872.22
2022-09-20T23:06:23.711Z,101872.47
2022-09-20T23:08:55.617Z,101870.78
2022-09-20T23:11:22.350Z,101879.97
2022-09-20T23:13:53.794Z,101877.56
2022-09-20T23:16:22.541Z,101885.84
2022-09-20T23:18:50.418Z,101878.94
2022-09-20T23:21:17.558Z,101880.06
2022-09-20T23:23:44.643Z,101881.19
2022-09-20T23:26:17.137Z,101884.84
2022-09-20T23:28:46.743Z,101879.72
2022-09-20T23:31:15.432Z,101879.00
2022-09-20T23:33:56.615Z,101879.28
2022-09-20T23:36:24.674Z,101882.25
2022-09-20T23:38:51.708Z,101883.34
2022-09-20T23:41:20.483Z,101880.94
2022-09-20T23:43:46.935Z,101882.16
2022-09-20T23:46:14.741Z,101880.59
2022-09-20T23:48:41.892Z,101880.97
2022-09-20T23:51:10.320Z,101883.94
2022-09-20T23:53:36.931Z,101889.72
2022-09-20T23:56:04.386Z,101888.25
2022-09-20T23:58:30.719Z,101893.91
